createdAt,value
2019-05-06T00:00:59.304Z,1011.03
2019-05-06T00:01:55.890Z,1011.04
2019-05-06T00:02:55.880Z,1011.00
2019-05-06T00:03:55.851Z,1011.03
2019-05-06T00:04:55.861Z,1011.00
2019-05-06T00:05:55.829Z,1011.07
2019-05-06T00:06:55.818Z,1011.05
2019-05-06T00:07:55.823Z,1010.98
2019-05-06T00:08:55.798Z,1011.03
2019-05-06T00:09:55.791Z,1011.12
2019-05-06T00:10:55.780Z,1011.05
2019-05-06T00:11:55.763Z,1011.08
2019-05-06T00:12:55.759Z,1011.05
2019-05-06T00:13:55.755Z,1011.02
2019-05-06T00:14:55.774Z,1011.07
2019-05-06T00:15:55.735Z,1011.03
2019-05-06T00:16:58.493Z,1011.05
2019-05-06T00:17:55.713Z,1011.05
2019-05-06T00:18:55.712Z,1011.01
2019-05-06T00:19:57.057Z,1011.06
2019-05-06T00:20:57.589Z,1011.09
2019-05-06T00:21:55.657Z,1011.07
2019-05-06T00:22:55.653Z,1011.05
2019-05-06T00:23:55.638Z,1011.03
2019-05-06T00:24:55.660Z,1011.03
2019-05-06T00:25:55.636Z,1011.08
2019-05-06T00:26:57.603Z,1011.06
2019-05-06T00:27:55.625Z,1011.10
2019-05-06T00:28:55.580Z,1011.08
2019-05-06T00:29:55.570Z,1011.09
2019-05-06T00:31:08.592Z,1011.11
2019-05-06T00:31:56.568Z,1011.05
2019-05-06T00:32:55.543Z,1011.08
2019-05-06T00:33:55.535Z,1011.03
2019-05-06T00:34:55.513Z,1011.12
2019-05-06T00:35:55.503Z,1011.11
2019-05-06T00:36:55.539Z,1011.09
2019-05-06T00:37:55.482Z,1011.04
2019-05-06T00:38:55.472Z,1011.05
2019-05-06T00:39:55.466Z,1011.11
2019-05-06T00:40:55.465Z,1011.07
2019-05-06T00:41:55.463Z,1011.12
2019-05-06T00:42:55.460Z,1011.10
2019-05-06T00:43:55.423Z,1011.10
2019-05-06T00:44:55.410Z,1011.12
2019-05-06T00:45:55.394Z,1011.13
2019-05-06T00:46:55.388Z,1011.14
2019-05-06T00:47:55.383Z,1011.10
2019-05-06T00:48:55.376Z,1011.11
2019-05-06T00:49:55.357Z,1011.17
2019-05-06T00:50:55.343Z,1011.12
2019-05-06T00:51:55.341Z,1011.15
2019-05-06T00:52:55.326Z,1011.09
2019-05-06T00:53:55.307Z,1011.14
2019-05-06T00:54:55.295Z,1011.14
2019-05-06T00:55:55.286Z,1011.07
2019-05-06T00:56:55.279Z,1011.07
2019-05-06T00:57:55.295Z,1011.08
2019-05-06T00:58:55.257Z,1011.08
2019-05-06T00:59:55.252Z,1011.15
2019-05-06T01:00:55.236Z,1011.02
2019-05-06T01:01:55.228Z,1011.14
2019-05-06T01:02:55.216Z,1011.07
2019-05-06T01:03:55.221Z,1011.17
2019-05-06T01:04:55.209Z,1011.15
2019-05-06T01:05:55.194Z,1011.17
2019-05-06T01:06:55.167Z,1011.11
2019-05-06T01:07:55.171Z,1011.15
2019-05-06T01:08:55.152Z,1011.14
2019-05-06T01:09:55.153Z,1011.19
2019-05-06T01:10:55.128Z,1011.18
2019-05-06T01:11:55.112Z,1011.20
2019-05-06T01:12:55.108Z,1011.23
2019-05-06T01:13:55.091Z,1011.21
2019-05-06T01:14:55.095Z,1011.24
2019-05-06T01:15:55.070Z,1011.21
2019-05-06T01:16:55.061Z,1011.23
2019-05-06T01:17:55.049Z,1011.16
2019-05-06T01:18:55.040Z,1011.21
2019-05-06T01:19:55.101Z,1011.22
2019-05-06T01:20:55.036Z,1011.17
2019-05-06T01:21:55.009Z,1011.21
2019-05-06T01:22:55.001Z,1011.21
2019-05-06T01:23:54.986Z,1011.20
2019-05-06T01:24:55.823Z,1011.23
2019-05-06T01:25:54.976Z,1011.20
2019-05-06T01:26:54.956Z,1011.17
2019-05-06T01:27:54.943Z,1011.25
2019-05-06T01:28:54.930Z,1011.29
2019-05-06T01:29:55.021Z,1011.26
2019-05-06T01:30:54.924Z,1011.32
2019-05-06T01:31:54.896Z,1011.27
2019-05-06T01:32:54.904Z,1011.32
2019-05-06T01:33:54.873Z,1011.33
2019-05-06T01:34:54.863Z,1011.36
2019-05-06T01:35:54.861Z,1011.29
2019-05-06T01:36:54.846Z,1011.25
2019-05-06T01:37:54.834Z,1011.34
2019-05-06T01:38:54.819Z,1011.38
2019-05-06T01:39:54.824Z,1011.36
2019-05-06T01:40:54.825Z,1011.35
2019-05-06T01:41:54.792Z,1011.36
2019-05-06T01:42:54.781Z,1011.45
2019-05-06T01:43:54.771Z,1011.37
2019-05-06T01:44:54.756Z,1011.42
2019-05-06T01:45:54.747Z,1011.41
2019-05-06T01:46:54.748Z,1011.41
2019-05-06T01:47:54.727Z,1011.43
2019-05-06T01:48:54.718Z,1011.50
2019-05-06T01:49:54.706Z,1011.45
2019-05-06T01:50:54.695Z,1011.48
2019-05-06T01:51:54.876Z,1011.49
2019-05-06T01:52:54.667Z,1011.43
2019-05-06T01:53:54.710Z,1011.47
2019-05-06T01:54:54.652Z,1011.34
2019-05-06T01:55:54.670Z,1011.42
2019-05-06T01:56:54.632Z,1011.43
2019-05-06T01:57:54.712Z,1011.42
2019-05-06T01:58:54.641Z,1011.38
2019-05-06T01:59:54.591Z,1011.39
2019-05-06T02:00:54.581Z,1011.36
2019-05-06T02:02:00.600Z,1011.41
2019-05-06T02:02:55.557Z,1011.35
2019-05-06T02:03:54.555Z,1011.38
2019-05-06T02:04:54.549Z,1011.40
2019-05-06T02:05:54.527Z,1011.31
2019-05-06T02:06:54.816Z,1011.33
2019-05-06T02:07:55.099Z,1011.38
2019-05-06T02:08:54.504Z,1011.39
2019-05-06T02:09:54.500Z,1011.37
2019-05-06T02:10:54.704Z,1011.40
2019-05-06T02:11:54.471Z,1011.38
2019-05-06T02:12:54.490Z,1011.37
2019-05-06T02:13:54.438Z,1011.39
2019-05-06T02:14:54.472Z,1011.39
2019-05-06T02:15:54.822Z,1011.45
2019-05-06T02:16:54.785Z,1011.41
2019-05-06T02:17:55.126Z,1011.44
2019-05-06T02:18:54.405Z,1011.36
2019-05-06T02:19:54.772Z,1011.36
2019-05-06T02:20:54.370Z,1011.42
2019-05-06T02:21:54.435Z,1011.39
2019-05-06T02:22:54.343Z,1011.44
2019-05-06T02:23:54.335Z,1011.43
2019-05-06T02:24:54.321Z,1011.42
2019-05-06T02:25:54.342Z,1011.41
2019-05-06T02:26:54.454Z,1011.39
2019-05-06T02:27:54.311Z,1011.42
2019-05-06T02:28:54.597Z,1011.35
2019-05-06T02:29:54.424Z,1011.37
2019-05-06T02:30:54.943Z,1011.41
2019-05-06T02:32:00.778Z,1011.33
2019-05-06T02:32:55.864Z,1011.35
2019-05-06T02:33:55.852Z,1011.35
2019-05-06T02:34:54.806Z,1011.38
2019-05-06T02:35:55.024Z,1011.36
2019-05-06T02:36:55.136Z,1011.38
2019-05-06T02:37:55.106Z,1011.35
2019-05-06T02:38:55.619Z,1011.39
2019-05-06T02:39:54.188Z,1011.38
2019-05-06T02:40:54.148Z,1011.31
2019-05-06T02:41:54.826Z,1011.33
2019-05-06T02:42:55.076Z,1011.38
2019-05-06T02:43:54.442Z,1011.41
2019-05-06T02:44:54.518Z,1011.37
2019-05-06T02:45:54.133Z,1011.37
2019-05-06T02:46:54.084Z,1011.35
2019-05-06T02:47:54.073Z,1011.40
2019-05-06T02:48:54.479Z,1011.36
2019-05-06T02:49:54.048Z,1011.40
2019-05-06T02:50:54.062Z,1011.43
2019-05-06T02:51:54.036Z,1011.45
2019-05-06T02:52:54.036Z,1011.53
2019-05-06T02:53:54.183Z,1011.51
2019-05-06T02:54:54.015Z,1011.55
2019-05-06T02:55:53.991Z,1011.49
2019-05-06T02:56:53.976Z,1011.55
2019-05-06T02:57:54.034Z,1011.50
2019-05-06T02:58:53.991Z,1011.58
2019-05-06T02:59:55.370Z,1011.57
2019-05-06T03:00:54.168Z,1011.57
2019-05-06T03:01:54.190Z,1011.53
2019-05-06T03:02:54.394Z,1011.52
2019-05-06T03:03:53.899Z,1011.55
2019-05-06T03:04:53.887Z,1011.55
2019-05-06T03:05:53.882Z,1011.59
2019-05-06T03:06:53.869Z,1011.58
2019-05-06T03:07:56.933Z,1011.56
2019-05-06T03:08:54.464Z,1011.63
2019-05-06T03:09:53.876Z,1011.63
2019-05-06T03:10:53.914Z,1011.66
2019-05-06T03:11:54.225Z,1011.61
2019-05-06T03:12:54.080Z,1011.65
2019-05-06T03:13:54.059Z,1011.64
2019-05-06T03:14:53.795Z,1011.62
2019-05-06T03:15:54.441Z,1011.60
2019-05-06T03:16:54.271Z,1011.64
2019-05-06T03:17:55.333Z,1011.63
2019-05-06T03:18:53.743Z,1011.56
2019-05-06T03:19:53.737Z,1011.58
2019-05-06T03:20:53.733Z,1011.61
2019-05-06T03:21:54.698Z,1011.65
2019-05-06T03:22:54.506Z,1011.65
2019-05-06T03:23:54.402Z,1011.71
2019-05-06T03:24:54.589Z,1011.67
2019-05-06T03:25:53.675Z,1011.64
2019-05-06T03:26:56.994Z,1011.66
2019-05-06T03:27:53.640Z,1011.66
2019-05-06T03:28:53.798Z,1011.73
2019-05-06T03:29:53.902Z,1011.72
2019-05-06T03:30:56.524Z,1011.72
2019-05-06T03:31:56.294Z,1011.73
2019-05-06T03:33:28.216Z,1011.70
2019-05-06T03:34:16.490Z,1011.69
2019-05-06T03:35:15.730Z,1011.80
2019-05-06T03:36:06.334Z,1011.75
2019-05-06T03:36:56.571Z,1011.79
2019-05-06T03:37:53.595Z,1011.74
2019-05-06T03:38:53.927Z,1011.73
2019-05-06T03:39:53.514Z,1011.80
2019-05-06T03:40:53.949Z,1011.77
2019-05-06T03:41:53.881Z,1011.79
2019-05-06T03:42:54.066Z,1011.78
2019-05-06T03:43:54.374Z,1011.74
2019-05-06T03:44:53.654Z,1011.75
2019-05-06T03:45:53.777Z,1011.72
2019-05-06T03:46:54.174Z,1011.79
2019-05-06T03:47:54.356Z,1011.81
2019-05-06T03:48:53.411Z,1011.82
2019-05-06T03:49:54.555Z,1011.80
2019-05-06T03:50:55.965Z,1011.83
2019-05-06T03:51:56.235Z,1011.81
2019-05-06T03:52:56.342Z,1011.83
2019-05-06T03:53:54.010Z,1011.88
2019-05-06T03:54:53.898Z,1011.82
2019-05-06T03:55:53.857Z,1011.86
2019-05-06T03:56:53.812Z,1011.80
2019-05-06T03:57:53.943Z,1011.84
2019-05-06T03:58:53.880Z,1011.83
2019-05-06T03:59:53.324Z,1011.88
2019-05-06T04:00:53.288Z,1011.92
2019-05-06T04:01:53.524Z,1011.93
2019-05-06T04:02:53.711Z,1011.95
2019-05-06T04:03:56.986Z,1011.93
2019-05-06T04:04:56.385Z,1011.93
2019-05-06T04:05:55.987Z,1011.91
2019-05-06T04:06:53.946Z,1011.93
2019-05-06T04:07:53.292Z,1011.95
2019-05-06T04:08:53.220Z,1011.96
2019-05-06T04:09:53.897Z,1011.92
2019-05-06T04:10:53.724Z,1011.96
2019-05-06T04:11:54.152Z,1011.95
2019-05-06T04:12:53.943Z,1011.99
2019-05-06T04:13:53.516Z,1011.93
2019-05-06T04:14:54.011Z,1011.94
2019-05-06T04:15:53.964Z,1011.99
2019-05-06T04:16:53.409Z,1012.00
2019-05-06T04:17:54.087Z,1011.99
2019-05-06T04:18:54.089Z,1011.96
2019-05-06T04:19:53.623Z,1011.97
2019-05-06T04:20:53.368Z,1011.97
2019-05-06T04:21:53.462Z,1012.00
2019-05-06T04:22:53.352Z,1012.02
2019-05-06T04:23:53.646Z,1012.05
2019-05-06T04:24:53.972Z,1012.02
2019-05-06T04:25:53.017Z,1012.03
2019-05-06T04:26:53.479Z,1012.04
2019-05-06T04:27:53.694Z,1012.03
2019-05-06T04:28:53.521Z,1012.06
2019-05-06T04:29:54.403Z,1012.08
2019-05-06T04:30:54.795Z,1012.11
2019-05-06T04:31:54.096Z,1012.14
2019-05-06T04:32:53.366Z,1012.09
2019-05-06T04:34:08.827Z,1012.14
2019-05-06T04:34:53.912Z,1012.20
2019-05-06T04:35:54.062Z,1012.14
2019-05-06T04:36:53.490Z,1012.15
2019-05-06T04:37:53.858Z,1012.11
2019-05-06T04:38:53.931Z,1012.14
2019-05-06T04:39:53.501Z,1012.16
2019-05-06T04:40:53.877Z,1012.10
2019-05-06T04:41:53.920Z,1012.20
2019-05-06T04:42:52.974Z,1012.14
2019-05-06T04:43:53.441Z,1012.16
2019-05-06T04:44:53.270Z,1012.17
2019-05-06T04:45:54.076Z,1012.17
2019-05-06T04:46:54.395Z,1012.17
2019-05-06T04:47:53.833Z,1012.16
2019-05-06T04:48:53.858Z,1012.18
2019-05-06T04:49:53.382Z,1012.09
2019-05-06T04:50:53.571Z,1012.19
2019-05-06T04:51:54.059Z,1012.20
2019-05-06T04:52:53.605Z,1012.22
2019-05-06T04:53:53.708Z,1012.12
2019-05-06T04:54:53.395Z,1012.16
2019-05-06T04:55:53.930Z,1012.19
2019-05-06T04:56:53.599Z,1012.16
2019-05-06T04:57:53.587Z,1012.22
2019-05-06T04:58:53.787Z,1012.22
2019-05-06T04:59:54.182Z,1012.15
2019-05-06T05:00:53.269Z,1012.21
2019-05-06T05:01:53.467Z,1012.22
2019-05-06T05:02:55.027Z,1012.20
2019-05-06T05:03:53.817Z,1012.21
2019-05-06T05:04:53.008Z,1012.22
2019-05-06T05:05:53.172Z,1012.18
2019-05-06T05:06:52.565Z,1012.16
2019-05-06T05:07:53.099Z,1012.19
2019-05-06T05:08:53.198Z,1012.16
2019-05-06T05:09:53.490Z,1012.12
2019-05-06T05:10:53.094Z,1012.20
2019-05-06T05:11:53.236Z,1012.20
2019-05-06T05:12:52.823Z,1012.17
2019-05-06T05:13:53.142Z,1012.19
2019-05-06T05:14:52.481Z,1012.20
2019-05-06T05:15:52.554Z,1012.23
2019-05-06T05:16:52.885Z,1012.18
2019-05-06T05:17:52.652Z,1012.15
2019-05-06T05:18:53.073Z,1012.21
2019-05-06T05:19:52.421Z,1012.20
2019-05-06T05:20:52.924Z,1012.17
2019-05-06T05:21:52.433Z,1012.16
2019-05-06T05:22:52.864Z,1012.23
2019-05-06T05:23:52.425Z,1012.18
2019-05-06T05:24:52.369Z,1012.16
2019-05-06T05:25:52.354Z,1012.14
2019-05-06T05:26:52.352Z,1012.16
2019-05-06T05:27:52.819Z,1012.14
2019-05-06T05:28:53.251Z,1012.17
2019-05-06T05:29:52.398Z,1012.14
2019-05-06T05:30:52.320Z,1012.14
2019-05-06T05:31:53.009Z,1012.11
2019-05-06T05:32:52.305Z,1012.15
2019-05-06T05:33:52.680Z,1012.11
2019-05-06T05:34:52.405Z,1012.08
2019-05-06T05:35:52.678Z,1012.07
2019-05-06T05:36:52.239Z,1012.11
2019-05-06T05:37:52.925Z,1012.04
2019-05-06T05:38:52.383Z,1012.07
2019-05-06T05:39:52.216Z,1012.16
2019-05-06T05:40:52.500Z,1012.15
2019-05-06T05:41:52.218Z,1012.18
2019-05-06T05:42:52.281Z,1012.15
2019-05-06T05:43:52.659Z,1012.13
2019-05-06T05:44:52.738Z,1012.16
2019-05-06T05:45:52.428Z,1012.14
2019-05-06T05:46:52.526Z,1012.15
2019-05-06T05:47:52.311Z,1012.12
2019-05-06T05:48:52.152Z,1012.17
2019-05-06T05:49:52.852Z,1012.14
2019-05-06T05:50:52.608Z,1012.19
2019-05-06T05:51:52.133Z,1012.15
2019-05-06T05:52:52.166Z,1012.16
2019-05-06T05:53:52.458Z,1012.15
2019-05-06T05:54:55.401Z,1012.18
2019-05-06T05:55:52.720Z,1012.20
2019-05-06T05:56:52.938Z,1012.24
2019-05-06T05:57:52.008Z,1012.20
2019-05-06T05:58:53.483Z,1012.19
2019-05-06T05:59:52.815Z,1012.24
2019-05-06T06:00:52.128Z,1012.18
2019-05-06T06:01:53.001Z,1012.22
2019-05-06T06:02:52.998Z,1012.22
2019-05-06T06:03:52.768Z,1012.27
2019-05-06T06:04:57.079Z,1012.26
2019-05-06T06:05:52.966Z,1012.25
2019-05-06T06:06:52.111Z,1012.24
2019-05-06T06:07:52.997Z,1012.23
2019-05-06T06:08:52.445Z,1012.28
2019-05-06T06:09:52.452Z,1012.24
2019-05-06T06:10:52.467Z,1012.26
2019-05-06T06:11:53.251Z,1012.31
2019-05-06T06:12:52.797Z,1012.26
2019-05-06T06:13:52.314Z,1012.21
2019-05-06T06:14:55.236Z,1012.25
2019-05-06T06:15:52.187Z,1012.25
2019-05-06T06:16:52.711Z,1012.23
2019-05-06T06:17:52.068Z,1012.31
2019-05-06T06:18:52.474Z,1012.24
2019-05-06T06:19:53.384Z,1012.26
2019-05-06T06:20:52.808Z,1012.24
2019-05-06T06:21:52.377Z,1012.28
2019-05-06T06:22:52.290Z,1012.23
2019-05-06T06:23:52.891Z,1012.24
2019-05-06T06:24:52.588Z,1012.28
2019-05-06T06:25:52.892Z,1012.23
2019-05-06T06:26:52.159Z,1012.28
2019-05-06T06:27:52.234Z,1012.25
2019-05-06T06:28:52.267Z,1012.29
2019-05-06T06:29:52.719Z,1012.22
2019-05-06T06:30:52.084Z,1012.16
2019-05-06T06:31:52.392Z,1012.17
2019-05-06T06:32:52.813Z,1012.16
2019-05-06T06:33:52.976Z,1012.19
2019-05-06T06:34:53.384Z,1012.10
2019-05-06T06:35:52.599Z,1012.10
2019-05-06T06:36:52.617Z,1012.11
2019-05-06T06:37:52.362Z,1012.12
2019-05-06T06:38:52.737Z,1012.12
2019-05-06T06:39:52.673Z,1012.12
2019-05-06T06:40:55.480Z,1012.10
2019-05-06T06:41:51.986Z,1012.08
2019-05-06T06:42:52.443Z,1012.14
2019-05-06T06:43:52.474Z,1012.12
2019-05-06T06:44:52.085Z,1012.18
2019-05-06T06:45:53.118Z,1012.17
2019-05-06T06:46:52.434Z,1012.22
2019-05-06T06:47:51.900Z,1012.16
2019-05-06T06:48:52.712Z,1012.09
2019-05-06T06:49:53.492Z,1012.14
2019-05-06T06:50:52.271Z,1012.18
2019-05-06T06:51:53.216Z,1012.16
2019-05-06T06:52:52.552Z,1012.18
2019-05-06T06:53:52.961Z,1012.13
2019-05-06T06:54:52.665Z,1012.11
2019-05-06T06:55:52.286Z,1012.16
2019-05-06T06:57:03.229Z,1012.16
2019-05-06T06:57:52.346Z,1012.14
2019-05-06T06:58:52.492Z,1012.19
2019-05-06T06:59:52.399Z,1012.18
2019-05-06T07:00:53.303Z,1012.12
2019-05-06T07:01:52.960Z,1012.11
2019-05-06T07:02:52.489Z,1012.10
2019-05-06T07:03:52.799Z,1012.14
2019-05-06T07:04:52.571Z,1012.06
2019-05-06T07:05:52.763Z,1012.15
2019-05-06T07:06:53.124Z,1012.17
2019-05-06T07:07:53.104Z,1012.15
2019-05-06T07:08:51.769Z,1012.08
2019-05-06T07:09:52.606Z,1012.17
2019-05-06T07:10:52.527Z,1012.15
2019-05-06T07:11:52.594Z,1012.22
2019-05-06T07:12:53.191Z,1012.16
2019-05-06T07:13:52.925Z,1012.15
2019-05-06T07:14:52.331Z,1012.15
2019-05-06T07:15:51.996Z,1012.16
2019-05-06T07:16:53.196Z,1012.16
2019-05-06T07:17:52.475Z,1012.12
2019-05-06T07:18:52.631Z,1012.18
2019-05-06T07:19:52.748Z,1012.10
2019-05-06T07:20:52.553Z,1011.99
2019-05-06T07:21:52.263Z,1012.00
2019-05-06T07:22:52.954Z,1012.02
2019-05-06T07:23:52.999Z,1012.07
2019-05-06T07:24:52.729Z,1012.09
2019-05-06T07:25:53.529Z,1012.10
2019-05-06T07:26:52.460Z,1012.19
2019-05-06T07:27:52.962Z,1012.09
2019-05-06T07:28:52.639Z,1012.10
2019-05-06T07:29:52.221Z,1011.98
2019-05-06T07:30:52.230Z,1012.06
2019-05-06T07:31:53.256Z,1012.04
2019-05-06T07:32:52.784Z,1012.06
2019-05-06T07:33:52.228Z,1012.03
2019-05-06T07:34:52.995Z,1012.10
2019-05-06T07:35:52.943Z,1012.03
2019-05-06T07:36:52.447Z,1012.11
2019-05-06T07:37:52.918Z,1012.01
2019-05-06T07:38:52.716Z,1012.02
2019-05-06T07:39:52.890Z,1012.05
2019-05-06T07:40:52.897Z,1012.08
2019-05-06T07:41:53.282Z,1012.04
2019-05-06T07:42:52.654Z,1012.03
2019-05-06T07:43:52.555Z,1012.01
2019-05-06T07:44:52.933Z,1011.98
2019-05-06T07:45:53.088Z,1012.12
2019-05-06T07:46:52.484Z,1012.05
2019-05-06T07:47:53.003Z,1012.01
2019-05-06T07:48:51.894Z,1011.93
2019-05-06T07:49:53.024Z,1011.95
2019-05-06T07:50:52.029Z,1011.99
2019-05-06T07:51:52.887Z,1011.94
2019-05-06T07:52:52.764Z,1011.90
2019-05-06T07:53:52.428Z,1011.97
2019-05-06T07:54:53.163Z,1012.06
2019-05-06T07:55:52.496Z,1011.95
2019-05-06T07:56:52.705Z,1011.81
2019-05-06T07:57:52.525Z,1011.91
2019-05-06T07:58:52.892Z,1011.93
2019-05-06T07:59:52.498Z,1011.92
2019-05-06T08:00:52.470Z,1011.99
2019-05-06T08:01:50.642Z,1012.00
2019-05-06T08:02:52.398Z,1011.98
2019-05-06T08:03:53.114Z,1011.94
2019-05-06T08:04:52.968Z,1011.87
2019-05-06T08:05:57.884Z,1011.99
2019-05-06T08:06:52.326Z,1011.93
2019-05-06T08:07:50.595Z,1011.89
2019-05-06T08:08:53.739Z,1012.00
2019-05-06T08:09:52.789Z,1012.05
2019-05-06T08:10:52.602Z,1012.00
2019-05-06T08:11:50.532Z,1012.03
2019-05-06T08:12:52.533Z,1011.96
2019-05-06T08:13:52.623Z,1011.98
2019-05-06T08:14:52.372Z,1011.95
2019-05-06T08:15:52.698Z,1011.97
2019-05-06T08:16:50.467Z,1011.94
2019-05-06T08:17:52.442Z,1011.91
2019-05-06T08:18:52.388Z,1011.97
2019-05-06T08:19:52.731Z,1011.88
2019-05-06T08:20:51.957Z,1011.92
2019-05-06T08:21:52.123Z,1011.87
2019-05-06T08:22:52.588Z,1011.88
2019-05-06T08:23:52.304Z,1012.00
2019-05-06T08:24:50.386Z,1012.08
2019-05-06T08:25:52.679Z,1012.10
2019-05-06T08:26:52.162Z,1012.19
2019-05-06T08:27:50.366Z,1011.83
2019-05-06T08:28:52.393Z,1011.91
2019-05-06T08:29:52.485Z,1011.99
2019-05-06T08:30:50.315Z,1012.00
2019-05-06T08:31:52.300Z,1011.93
2019-05-06T08:32:50.312Z,1011.85
2019-05-06T08:33:52.387Z,1011.96
2019-05-06T08:34:52.274Z,1011.86
2019-05-06T08:35:50.270Z,1011.86
2019-05-06T08:36:50.254Z,1011.93
2019-05-06T08:37:50.242Z,1011.87
2019-05-06T08:38:50.232Z,1011.94
2019-05-06T08:39:52.534Z,1011.93
2019-05-06T08:40:52.412Z,1011.98
2019-05-06T08:41:50.199Z,1011.98
2019-05-06T08:42:50.189Z,1012.10
2019-05-06T08:43:50.173Z,1012.17
2019-05-06T08:44:50.170Z,1012.14
2019-05-06T08:45:52.633Z,1011.96
2019-05-06T08:46:50.142Z,1012.05
2019-05-06T08:47:52.246Z,1012.10
2019-05-06T08:48:52.357Z,1011.94
2019-05-06T08:49:50.118Z,1011.82
2019-05-06T08:50:50.107Z,1011.81
2019-05-06T08:51:50.084Z,1011.84
2019-05-06T08:52:52.129Z,1011.82
2019-05-06T08:53:50.061Z,1011.81
2019-05-06T08:54:50.055Z,1011.90
2019-05-06T08:55:50.048Z,1011.83
2019-05-06T08:56:52.150Z,1011.84
2019-05-06T08:57:50.016Z,1011.81
2019-05-06T08:58:52.582Z,1011.84
2019-05-06T08:59:50.002Z,1012.10
2019-05-06T09:00:50.002Z,1012.03
2019-05-06T09:01:49.972Z,1011.83
2019-05-06T09:02:49.963Z,1012.04
2019-05-06T09:04:05.036Z,1011.99
2019-05-06T09:04:51.800Z,1011.97
2019-05-06T09:05:49.938Z,1012.02
2019-05-06T09:06:49.924Z,1011.92
2019-05-06T09:07:49.911Z,1011.96
2019-05-06T09:08:52.052Z,1011.85
2019-05-06T09:09:49.903Z,1011.79
2019-05-06T09:10:51.978Z,1011.64
2019-05-06T09:11:49.886Z,1011.73
2019-05-06T09:12:49.853Z,1011.78
2019-05-06T09:13:51.979Z,1011.72
2019-05-06T09:14:49.841Z,1011.75
2019-05-06T09:15:49.825Z,1011.74
2019-05-06T09:16:51.334Z,1011.71
2019-05-06T09:17:49.813Z,1011.74
2019-05-06T09:18:49.788Z,1011.66
2019-05-06T09:19:49.785Z,1011.70
2019-05-06T09:20:49.770Z,1011.68
2019-05-06T09:21:49.768Z,1011.69
2019-05-06T09:22:52.080Z,1011.97
2019-05-06T09:23:49.735Z,1011.74
2019-05-06T09:24:49.740Z,1011.96
2019-05-06T09:25:49.715Z,1011.93
2019-05-06T09:26:52.022Z,1011.85
2019-05-06T09:27:49.701Z,1011.73
2019-05-06T09:28:49.677Z,1011.63
2019-05-06T09:29:51.960Z,1011.66
2019-05-06T09:30:49.654Z,1011.64
2019-05-06T09:31:52.050Z,1011.58
2019-05-06T09:32:49.643Z,1011.58
2019-05-06T09:33:49.628Z,1011.49
2019-05-06T09:34:49.623Z,1011.56
2019-05-06T09:35:49.602Z,1011.55
2019-05-06T09:36:52.653Z,1011.54
2019-05-06T09:37:53.267Z,1011.71
2019-05-06T09:38:49.610Z,1011.63
2019-05-06T09:39:49.556Z,1011.81
2019-05-06T09:40:49.546Z,1011.76
2019-05-06T09:41:49.769Z,1011.74
2019-05-06T09:42:51.932Z,1011.40
2019-05-06T09:43:49.517Z,1011.48
2019-05-06T09:44:50.663Z,1011.53
2019-05-06T09:45:49.514Z,1011.45
2019-05-06T09:46:49.479Z,1011.58
2019-05-06T09:47:49.478Z,1011.49
2019-05-06T09:48:49.460Z,1011.55
2019-05-06T09:49:49.487Z,1011.55
2019-05-06T09:50:49.445Z,1011.53
2019-05-06T09:51:49.427Z,1011.58
2019-05-06T09:52:49.429Z,1011.56
2019-05-06T09:53:49.411Z,1011.58
2019-05-06T09:54:49.394Z,1011.65
2019-05-06T09:55:49.408Z,1011.57
2019-05-06T09:56:49.374Z,1011.60
2019-05-06T09:57:49.378Z,1011.62
2019-05-06T09:58:49.353Z,1011.66
2019-05-06T09:59:49.348Z,1011.60
2019-05-06T10:00:49.330Z,1011.64
2019-05-06T10:01:49.321Z,1011.58
2019-05-06T10:02:49.665Z,1011.56
2019-05-06T10:03:49.294Z,1011.57
2019-05-06T10:04:49.292Z,1011.59
2019-05-06T10:05:49.282Z,1011.49
2019-05-06T10:06:57.320Z,1011.50
2019-05-06T10:07:52.278Z,1011.55
2019-05-06T10:08:49.266Z,1011.55
2019-05-06T10:09:49.251Z,1011.59
2019-05-06T10:10:56.883Z,1011.64
2019-05-06T10:11:52.414Z,1011.57
2019-05-06T10:12:49.201Z,1011.54
2019-05-06T10:13:49.185Z,1011.49
2019-05-06T10:14:49.190Z,1011.52
2019-05-06T10:15:49.168Z,1011.52
2019-05-06T10:16:49.169Z,1011.52
2019-05-06T10:17:49.142Z,1011.48
2019-05-06T10:18:49.131Z,1011.51
2019-05-06T10:19:49.147Z,1011.52
2019-05-06T10:20:49.109Z,1011.48
2019-05-06T10:21:49.104Z,1011.51
2019-05-06T10:22:57.185Z,1011.54
2019-05-06T10:23:49.086Z,1011.44
2019-05-06T10:24:49.068Z,1011.51
2019-05-06T10:25:49.092Z,1011.52
2019-05-06T10:26:49.045Z,1011.49
2019-05-06T10:27:49.033Z,1011.45
2019-05-06T10:28:49.031Z,1011.49
2019-05-06T10:29:49.018Z,1011.49
2019-05-06T10:30:49.002Z,1011.48
2019-05-06T10:31:48.998Z,1011.45
2019-05-06T10:32:48.982Z,1011.41
2019-05-06T10:33:48.990Z,1011.44
2019-05-06T10:34:48.966Z,1011.45
2019-05-06T10:35:48.951Z,1011.58
2019-05-06T10:36:48.962Z,1011.63
2019-05-06T10:37:48.926Z,1011.61
2019-05-06T10:38:48.922Z,1011.67
2019-05-06T10:39:48.903Z,1011.39
2019-05-06T10:41:01.033Z,1011.46
2019-05-06T10:41:49.899Z,1011.51
2019-05-06T10:42:48.883Z,1011.36
2019-05-06T10:43:48.866Z,1011.32
2019-05-06T10:44:48.885Z,1011.29
2019-05-06T10:45:48.837Z,1011.26
2019-05-06T10:46:48.831Z,1011.19
2019-05-06T10:47:48.814Z,1011.22
2019-05-06T10:48:48.809Z,1011.26
2019-05-06T10:49:48.793Z,1011.32
2019-05-06T10:50:48.798Z,1011.25
2019-05-06T10:51:48.776Z,1011.32
2019-05-06T10:52:48.760Z,1011.34
2019-05-06T10:53:48.767Z,1011.30
2019-05-06T10:54:48.747Z,1011.34
2019-05-06T10:55:48.732Z,1011.35
2019-05-06T10:56:52.693Z,1011.36
2019-05-06T10:57:49.707Z,1011.32
2019-05-06T10:58:48.698Z,1011.35
2019-05-06T10:59:48.702Z,1011.32
2019-05-06T11:00:48.679Z,1011.38
2019-05-06T11:01:48.670Z,1011.35
2019-05-06T11:02:48.653Z,1011.42
2019-05-06T11:03:48.650Z,1011.31
2019-05-06T11:04:48.652Z,1011.31
2019-05-06T11:05:48.624Z,1011.37
2019-05-06T11:06:48.615Z,1011.27
2019-05-06T11:07:48.595Z,1011.32
2019-05-06T11:08:48.591Z,1011.31
2019-05-06T11:09:48.581Z,1011.26
2019-05-06T11:10:48.581Z,1011.18
2019-05-06T11:11:48.554Z,1011.17
2019-05-06T11:12:48.544Z,1011.20
2019-05-06T11:13:48.530Z,1011.24
2019-05-06T11:14:48.530Z,1011.25
2019-05-06T11:15:48.528Z,1011.26
2019-05-06T11:16:48.501Z,1011.42
2019-05-06T11:17:48.488Z,1011.20
2019-05-06T11:18:48.479Z,1011.12
2019-05-06T11:19:48.469Z,1011.02
2019-05-06T11:20:48.453Z,1011.06
2019-05-06T11:21:48.457Z,1011.06
2019-05-06T11:22:48.435Z,1011.09
2019-05-06T11:23:48.422Z,1011.08
2019-05-06T11:24:48.414Z,1011.12
2019-05-06T11:25:48.403Z,1011.14
2019-05-06T11:26:48.401Z,1010.99
2019-05-06T11:27:48.382Z,1011.09
2019-05-06T11:28:48.365Z,1011.14
2019-05-06T11:29:48.365Z,1011.05
2019-05-06T11:30:48.343Z,1011.12
2019-05-06T11:31:48.356Z,1011.09
2019-05-06T11:32:48.321Z,1011.09
2019-05-06T11:33:48.310Z,1011.07
2019-05-06T11:34:48.301Z,1011.12
2019-05-06T11:35:48.291Z,1011.14
2019-05-06T11:36:48.277Z,1011.13
2019-05-06T11:37:50.876Z,1011.11
2019-05-06T11:38:49.251Z,1011.14
2019-05-06T11:39:48.242Z,1011.12
2019-05-06T11:40:48.231Z,1011.35
2019-05-06T11:42:01.371Z,1011.10
2019-05-06T11:42:49.240Z,1011.07
2019-05-06T11:43:48.205Z,1011.06
2019-05-06T11:44:48.208Z,1011.07
2019-05-06T11:45:48.185Z,1011.36
2019-05-06T11:46:48.211Z,1011.35
2019-05-06T11:47:48.152Z,1011.01
2019-05-06T11:48:48.167Z,1011.31
2019-05-06T11:49:48.131Z,1011.24
2019-05-06T11:50:48.128Z,1010.88
2019-05-06T11:51:48.124Z,1010.91
2019-05-06T11:52:48.099Z,1010.91
2019-05-06T11:53:48.091Z,1010.92
2019-05-06T11:54:48.097Z,1010.92
2019-05-06T11:55:48.089Z,1010.91
2019-05-06T11:56:51.741Z,1010.90
2019-05-06T11:57:49.048Z,1010.90
2019-05-06T11:58:48.033Z,1010.99
2019-05-06T11:59:48.040Z,1010.96
2019-05-06T12:00:48.018Z,1010.99
2019-05-06T12:01:48.035Z,1010.92
2019-05-06T12:02:48.901Z,1010.99
2019-05-06T12:03:47.976Z,1010.98
2019-05-06T12:04:47.969Z,1011.07
2019-05-06T12:05:47.959Z,1011.29